This is the latest recevied weather packets stored in our database for station/object WX7EM. If no packets are shown the sender has not sent any weather packets the latest 1 day(s).
| Time | Temp. | Humidity | Pressure | Rain* | Wind** | Luminosity | Snow |
|---|---|---|---|---|---|---|---|
| 1778035716 | 17.78° C | 72% | 1014.6 hPa | 0 mm | 0.45 m/s, 69° | 26 W/m² | - |
| 1778035412 | 17.78° C | 71% | 1014.5 hPa | 0 mm | 0 m/s | 31 W/m² | - |
| 1778035109 | 18.33° C | 70% | 1014.7 hPa | 0 mm | 0.45 m/s, 18° | 37 W/m² | - |
| 1778034805 | 18.33° C | 70% | 1014.7 hPa | 0 mm | 0 m/s | 44 W/m² | - |
| 1778034502 | 18.33° C | 69% | 1014.5 hPa | 0 mm | 0 m/s | 51 W/m² | - |
| 1778034200 | 18.33° C | 69% | 1014.5 hPa | 0 mm | 0.45 m/s, 68° | 56 W/m² | - |
| 1778033898 | 18.33° C | 70% | 1014.3 hPa | 0 mm | 0.45 m/s, 103° | 65 W/m² | - |
| 1778033594 | 18.89° C | 69% | 1014.4 hPa | 0 mm | 0 m/s | 69 W/m² | - |
| 1778033291 | 18.33° C | 70% | 1014.3 hPa | 0 mm | 0.45 m/s, 104° | 63 W/m² | - |
| 1778032989 | 18.33° C | 70% | 1014.4 hPa | 0 mm | 0.45 m/s, 46° | 87 W/m² | - |
| 1778032687 | 18.33° C | 71% | 1014.6 hPa | 0 mm | 0.45 m/s, 74° | 69 W/m² | - |
| 1778032384 | 18.89° C | 68% | 1014.7 hPa | 0 mm | 0.45 m/s, 97° | 84 W/m² | - |
| 1778032080 | 18.89° C | 68% | 1014.4 hPa | 0 mm | 0.45 m/s, 98° | 88 W/m² | - |
| 1778031777 | 18.89° C | 68% | 1014.5 hPa | 0 mm | 0 m/s | 119 W/m² | - |
| 1778031474 | 18.89° C | 69% | 1014.6 hPa | 0 mm | 0 m/s | 126 W/m² | - |
| 1778031171 | 18.89° C | 68% | 1014.6 hPa | 0 mm | 0.89 m/s, 31° | 130 W/m² | - |
| 1778030868 | 18.89° C | 69% | 1014.4 hPa | 0 mm | 0.45 m/s, 94° | 137 W/m² | - |
| 1778030565 | 18.89° C | 69% | 1014.5 hPa | 0 mm | 0.45 m/s, 131° | 150 W/m² | - |
| 1778030262 | 18.89° C | 68% | 1014.5 hPa | 0 mm | 0.45 m/s, 75° | 164 W/m² | - |
| 1778029958 | 18.33° C | 69% | 1014.4 hPa | 0 mm | 1.34 m/s, 25° | 181 W/m² | - |
| 1778029657 | 19.44° C | 68% | 1014.6 hPa | 0 mm | 0.45 m/s, 76° | 193 W/m² | - |
| 1778029353 | 18.89° C | 69% | 1014.5 hPa | 0 mm | 0 m/s | 198 W/m² | - |
| 1778029051 | 18.89° C | 68% | 1014.6 hPa | 0 mm | 0.89 m/s, 8° | 198 W/m² | - |
| 1778028747 | 18.33° C | 70% | 1014.5 hPa | 0 mm | 0.89 m/s, 97° | 234 W/m² | - |
| 1778028443 | 18.89° C | 70% | 1014.4 hPa | 0 mm | 0.45 m/s, 148° | 246 W/m² | - |
* Rain latest hour (hover to see other rain measurements)
** Current wind speed in m/s (hover to see current wind gust speed)